MSC Newyork — HOFP — position and weather

sailwx.info

Track history (hours):
 
Tides and Currents Weather Stations Pressure Air Temp Water Temp Dewpoint Dewpoint Depression Visibility Wind Speed Wind Dir Waves Ship Positions

MSC Newyork

Last reported at 2018-Feb-08 13:30 UTC. Time now 2018-Feb-19 08:20 UTC.
Position N 32°10' E 030°32'.
Warning: this ship's position is 10 days out of date.

Length 399 m; draft 14.7 m.

Type: Ship. MMSI: 352952000.

Date/timePositionNaut miles runAvg speedWind from/ knotsBaromVisibWave heightAir tempDewpointWater temp
2018-Feb-08 13:30N 32°10' E 030°32'80219.8
2018-Feb-06 21:03N 36°27' E 015°13'120.7
2018-Feb-06 20:59N 36°27' E 015°11'1020.8
2018-Feb-06 20:30N 36°30' E 014°59'1421.1
2018-Feb-06 19:49N 36°35' E 014°42'721.0
2018-Feb-06 19:30N 36°38' E 014°34'1120.9
2018-Feb-06 18:59N 36°42' E 014°22'2220.8
2018-Feb-06 17:55N 36°53' E 013°58'921.0
2018-Feb-06 17:30N 36°56' E 013°48'1120.9
2018-Feb-06 17:00N 37°01' E 013°36'41220.3
2018-Feb-05 20:43N 37°19' E 004°59'421.6
2018-Feb-05 20:30N 37°18' E 004°54'4221.1
2018-Feb-05 18:30N 37°12' E 004°01'44621.1
2018-Feb-04 21:20N 36°00' W 005°07'823.2
2018-Feb-04 21:00N 35°59' W 005°17'24114.1
2018-Feb-04 03:50N 37°43' W 009°49'718.9
2018-Feb-04 03:27N 37°50' W 009°50'819.0
2018-Feb-04 03:00N 37°59' W 009°53'1019.2
2018-Feb-04 02:30N 38°08' W 009°56'1019.1
2018-Feb-04 02:00N 38°17' W 009°60'919.3
2018-Feb-04 01:30N 38°26' W 010°03'1019.1
2018-Feb-04 01:00N 38°36' W 010°05'1019.4
2018-Feb-04 00:30N 38°45' W 010°06'1019.0
2018-Feb-04 00:00N 38°55' W 010°07'919.0
2018-Feb-03 23:30N 39°04' W 010°06'1019.2
2018-Feb-03 23:01N 39°14' W 010°06'1018.9
2018-Feb-03 22:30N 39°23' W 010°07'66418.8
2018-Feb-02 11:15N 49°49' W 004°52'1620.9
2018-Feb-02 10:29N 49°54' W 004°28'1020.7
2018-Feb-02 10:01N 49°57' W 004°14'1020.2
2018-Feb-02 09:30N 49°60' W 003°59'1019.3
2018-Feb-02 09:01N 50°03' W 003°45'918.5
2018-Feb-02 08:31N 50°06' W 003°31'918.2
2018-Feb-02 08:00N 50°09' W 003°17'917.8
2018-Feb-02 07:31N 50°12' W 003°04'917.5
2018-Feb-02 07:00N 50°14' W 002°51'917.7
2018-Feb-02 06:30N 50°17' W 002°38'917.9
2018-Feb-02 06:01N 50°20' W 002°25'918.3
2018-Feb-02 05:30N 50°21' W 002°10'919.1
2018-Feb-02 05:00N 50°22' W 001°56'1019.1
2018-Feb-02 04:30N 50°24' W 001°41'1019.4
2018-Feb-02 04:01N 50°25' W 001°26'1019.4
2018-Feb-02 03:30N 50°26' W 001°11'1019.3
2018-Feb-02 03:00N 50°28' W 000°56'918.8
2018-Feb-02 02:30N 50°29' W 000°41'918.1
2018-Feb-02 02:00N 50°30' W 000°27'917.3
2018-Feb-02 01:30N 50°32' W 000°13'816.4
2018-Feb-02 01:00N 50°33' W 000°01'815.5
2018-Feb-02 00:30N 50°34' E 000°11'714.8
2018-Feb-02 00:00N 50°35' E 000°23'713.7
2018-Feb-01 23:30N 50°36' E 000°34'612.3
2018-Feb-01 23:00N 50°39' E 000°42'1212.5
2018-Feb-01 22:01N 50°46' E 000°58'612.8
2018-Feb-01 21:30N 50°49' E 001°07'3015.2
2018-Feb-01 19:30N 51°10' E 001°42'714.4
2018-Feb-01 19:01N 51°16' E 001°49'612.3
2018-Feb-01 18:30N 51°21' E 001°55'510.4
2018-Feb-01 18:00N 51°26' E 001°56'611.3
2018-Feb-01 17:30N 51°31' E 001°51'510.7
2018-Feb-01 17:01N 51°36' E 001°48'510.0
2018-Feb-01 16:30N 51°41' E 001°45'5 9.7
2018-Feb-01 16:00N 51°46' E 001°44'4 9.0
2018-Feb-01 15:30N 51°50' E 001°42'4 7.9
2018-Feb-01 15:00N 51°53' E 001°38'12 8.1
2018-Feb-01 13:30N 51°56' E 001°19'1 1.8
2018-Feb-01 13:01N 51°57' E 001°19'0 0.1
2018-Feb-01 12:29N 51°57' E 001°19'0 0.1
2018-Feb-01 11:59N 51°57' E 001°19'0 0.0
2018-Feb-01 10:59N 51°57' E 001°19'0 0.0
2018-Feb-01 10:29N 51°57' E 001°19'0 0.0
2018-Feb-01 09:59N 51°57' E 001°19'0 0.0
2018-Feb-01 09:29N 51°57' E 001°19'0 0.0
2018-Feb-01 08:59N 51°57' E 001°19'0 0.0
2018-Feb-01 08:29N 51°57' E 001°19'0 0.0
2018-Feb-01 07:29N 51°57' E 001°19'0 0.0
2018-Feb-01 06:59N 51°57' E 001°19'0 0.0
2018-Feb-01 06:29N 51°57' E 001°19'0 0.0
2018-Feb-01 05:59N 51°57' E 001°19'0 0.0
2018-Feb-01 05:29N 51°57' E 001°19'0 0.0
2018-Feb-01 04:59N 51°57' E 001°19'0 0.0
2018-Feb-01 04:29N 51°57' E 001°19'0 0.0
2018-Feb-01 03:59N 51°57' E 001°19'0 0.0
2018-Feb-01 02:59N 51°57' E 001°19'0 0.0
2018-Feb-01 02:29N 51°57' E 001°19'0 0.0
2018-Feb-01 01:59N 51°57' E 001°19'0 0.0
2018-Feb-01 01:29N 51°57' E 001°19'0 0.0
2018-Feb-01 00:59N 51°57' E 001°19'0 0.0
2018-Feb-01 00:29N 51°57' E 001°19'0 0.0
2018-Jan-31 23:59N 51°57' E 001°19'0 0.0
2018-Jan-31 22:59N 51°57' E 001°19'0 0.0
2018-Jan-31 22:29N 51°57' E 001°19'0 0.0
2018-Jan-31 20:59N 51°57' E 001°19'0 0.0
2018-Jan-31 20:29N 51°57' E 001°19'0 0.0
2018-Jan-31 19:59N 51°57' E 001°19'0 0.0
2018-Jan-31 19:29N 51°57' E 001°19'0 0.0
2018-Jan-31 18:59N 51°57' E 001°19'0 0.0
2018-Jan-31 18:29N 51°57' E 001°19'0 0.0
2018-Jan-31 18:00N 51°57' E 001°19'0 0.0
2018-Jan-31 17:30N 51°57' E 001°19'0 0.0
2018-Jan-31 17:00N 51°57' E 001°19'0 0.0
2018-Jan-31 16:30N 51°57' E 001°19'0 0.0
2018-Jan-31 15:57N 51°57' E 001°19'0 0.0
2018-Jan-31 15:30N 51°57' E 001°19'0 0.0
2018-Jan-31 15:00N 51°57' E 001°19'0 0.0
2018-Jan-31 14:30N 51°57' E 001°19'0 0.0
2018-Jan-31 13:00N 51°57' E 001°19'0 0.0
2018-Jan-31 12:30N 51°57' E 001°19'0 0.0
2018-Jan-31 12:00N 51°57' E 001°19'0 0.0
2018-Jan-31 11:30N 51°57' E 001°19'0 0.0
2018-Jan-31 11:00N 51°57' E 001°19'0 0.0
2018-Jan-31 10:27N 51°57' E 001°19'0 0.0
2018-Jan-31 10:00N 51°57' E 001°19'0 0.0
2018-Jan-31 09:30N 51°57' E 001°19'0 0.0
2018-Jan-31 09:00N 51°57' E 001°19'0 0.0
2018-Jan-31 08:30N 51°57' E 001°19'0 0.0
2018-Jan-31 08:00N 51°57' E 001°19'0 0.0
2018-Jan-31 07:30N 51°57' E 001°19'0 0.3
2018-Jan-31 07:00N 51°57' E 001°19'1 2.8
2018-Jan-31 06:30N 51°55' E 001°20'611.2
2018-Jan-31 06:00N 51°56' E 001°29'4 7.0
2018-Jan-31 05:30N 51°54' E 001°34'3 5.6
2018-Jan-31 05:00N 51°52' E 001°36'3 6.1
2018-Jan-31 04:30N 51°52' E 001°41'2 4.9
2018-Jan-31 04:00N 51°55' E 001°41'0 0.5
2018-Jan-31 03:30N 51°55' E 001°41'0 0.0
2018-Jan-31 03:00N 51°55' E 001°41'0 0.0
2018-Jan-31 02:30N 51°55' E 001°41'0 0.0
2018-Jan-31 02:00N 51°55' E 001°41'0 0.0
2018-Jan-31 01:30N 51°55' E 001°41'0 0.1
2018-Jan-31 01:00N 51°55' E 001°41'4 4.5
2018-Jan-31 00:00N 51°52' E 001°47'5 9.2
2018-Jan-30 23:30N 51°50' E 001°53'4 7.5
2018-Jan-30 23:00N 51°51' E 001°59'4 8.5
2018-Jan-30 22:30N 51°53' E 002°05'1210.8
2018-Jan-30 21:25N 52°00' E 002°21'817.8
2018-Jan-30 21:00N 52°05' E 002°30'2618.9
2018-Jan-30 19:36N 52°20' E 003°05'219.6
2018-Jan-30 19:29N 52°22' E 003°08'1019.4
2018-Jan-30 18:59N 52°28' E 003°20'1019.6
2018-Jan-30 18:30N 52°36' E 003°29'1019.1
2018-Jan-30 17:59N 52°44' E 003°39'918.6
2018-Jan-30 17:30N 52°50' E 003°49'1718.2
2018-Jan-30 16:36N 53°02' E 004°08'218.2
2018-Jan-30 16:31N 53°03' E 004°11'917.9
2018-Jan-30 16:00N 53°09' E 004°22'817.2
2018-Jan-30 15:31N 53°16' E 004°29'1017.4
2018-Jan-30 14:55N 53°26' E 004°35'717.6
2018-Jan-30 14:30N 53°30' E 004°44'1919.0
2018-Jan-30 13:31N 53°37' E 005°14'9217.4
2018-Jan-30 08:12N 53°53' E 007°48'416.6
2018-Jan-30 07:57N 53°52' E 007°55'714.9
2018-Jan-30 07:30N 53°50' E 008°06'713.6
2018-Jan-30 07:00N 53°45' E 008°13'612.0
2018-Jan-30 06:30N 53°41' E 008°21'611.7
2018-Jan-30 06:00N 53°37' E 008°29'2 3.6
2018-Jan-30 05:30N 53°36' E 008°31'0 0.0
2018-Jan-30 05:00N 53°36' E 008°31'0 0.0
2018-Jan-30 04:30N 53°36' E 008°31'0 0.0
2018-Jan-30 04:00N 53°36' E 008°31'0 0.0
2018-Jan-30 03:30N 53°36' E 008°31'0 0.0
2018-Jan-30 03:00N 53°36' E 008°31'0 0.0
2018-Jan-30 02:30N 53°36' E 008°31'0 0.0
2018-Jan-30 02:00N 53°36' E 008°31'0 0.0
2018-Jan-30 01:30N 53°36' E 008°31'0 0.0
2018-Jan-30 01:00N 53°36' E 008°31'0 0.0
2018-Jan-30 00:30N 53°36' E 008°31'0 0.0
2018-Jan-30 00:00N 53°36' E 008°31'0 0.0
2018-Jan-29 23:30N 53°36' E 008°31'0 0.0
2018-Jan-29 23:00N 53°36' E 008°31'0 0.0
2018-Jan-29 22:30N 53°36' E 008°31'0 0.0
2018-Jan-29 22:00N 53°36' E 008°31'0 0.0
2018-Jan-29 21:30N 53°36' E 008°31'0 0.0
2018-Jan-29 21:00N 53°36' E 008°31'0 0.0
2018-Jan-29 20:30N 53°36' E 008°31'0 0.0
2018-Jan-29 20:00N 53°36' E 008°31'0 0.0
2018-Jan-29 19:30N 53°36' E 008°31'0 0.0
2018-Jan-29 19:00N 53°36' E 008°31'0 0.0
2018-Jan-29 18:30N 53°36' E 008°31'0 0.0
2018-Jan-29 18:00N 53°36' E 008°31'0 0.0
2018-Jan-29 17:30N 53°36' E 008°31'0 0.0
2018-Jan-29 17:00N 53°36' E 008°31'0 0.0
2018-Jan-29 16:30N 53°36' E 008°31'0 0.0
2018-Jan-29 16:00N 53°36' E 008°31'0 0.0
2018-Jan-29 15:30N 53°36' E 008°31'0 0.0
2018-Jan-29 15:00N 53°36' E 008°31'0 0.0
2018-Jan-29 14:30N 53°36' E 008°31'0 0.0
2018-Jan-29 14:00N 53°36' E 008°31'  
Track history (hours):
 
Tides and Currents Weather Stations Pressure Air Temp Water Temp Dewpoint Dewpoint Depression Visibility Wind Speed Wind Dir Waves Ship Positions

MSC Newyork

Last reported at 2018-Feb-08 13:30 UTC. Time now 2018-Feb-19 08:20 UTC.
Position N 32°10' E 030°32'.
Warning: this ship's position is 10 days out of date.

Length 399 m; draft 14.7 m.

Type: Ship. MMSI: 352952000.

Date/timePositionNaut miles runAvg speedWind from/ knotsBaromVisibWave heightAir tempDewpointWater temp
2018-Feb-08 13:30N 32°10' E 030°32'80219.8
2018-Feb-06 21:03N 36°27' E 015°13'120.7
2018-Feb-06 20:59N 36°27' E 015°11'1020.8
2018-Feb-06 20:30N 36°30' E 014°59'1421.1
2018-Feb-06 19:49N 36°35' E 014°42'721.0
2018-Feb-06 19:30N 36°38' E 014°34'1120.9
2018-Feb-06 18:59N 36°42' E 014°22'2220.8
2018-Feb-06 17:55N 36°53' E 013°58'921.0
2018-Feb-06 17:30N 36°56' E 013°48'1120.9
2018-Feb-06 17:00N 37°01' E 013°36'41220.3
2018-Feb-05 20:43N 37°19' E 004°59'421.6
2018-Feb-05 20:30N 37°18' E 004°54'4221.1
2018-Feb-05 18:30N 37°12' E 004°01'44621.1
2018-Feb-04 21:20N 36°00' W 005°07'823.2
2018-Feb-04 21:00N 35°59' W 005°17'24114.1
2018-Feb-04 03:50N 37°43' W 009°49'718.9
2018-Feb-04 03:27N 37°50' W 009°50'819.0
2018-Feb-04 03:00N 37°59' W 009°53'1019.2
2018-Feb-04 02:30N 38°08' W 009°56'1019.1
2018-Feb-04 02:00N 38°17' W 009°60'919.3
2018-Feb-04 01:30N 38°26' W 010°03'1019.1
2018-Feb-04 01:00N 38°36' W 010°05'1019.4
2018-Feb-04 00:30N 38°45' W 010°06'1019.0
2018-Feb-04 00:00N 38°55' W 010°07'919.0
2018-Feb-03 23:30N 39°04' W 010°06'1019.2
2018-Feb-03 23:01N 39°14' W 010°06'1018.9
2018-Feb-03 22:30N 39°23' W 010°07'66418.8
2018-Feb-02 11:15N 49°49' W 004°52'1620.9
2018-Feb-02 10:29N 49°54' W 004°28'1020.7
2018-Feb-02 10:01N 49°57' W 004°14'1020.2
2018-Feb-02 09:30N 49°60' W 003°59'1019.3
2018-Feb-02 09:01N 50°03' W 003°45'918.5
2018-Feb-02 08:31N 50°06' W 003°31'918.2
2018-Feb-02 08:00N 50°09' W 003°17'917.8
2018-Feb-02 07:31N 50°12' W 003°04'917.5
2018-Feb-02 07:00N 50°14' W 002°51'917.7
2018-Feb-02 06:30N 50°17' W 002°38'917.9
2018-Feb-02 06:01N 50°20' W 002°25'918.3
2018-Feb-02 05:30N 50°21' W 002°10'919.1
2018-Feb-02 05:00N 50°22' W 001°56'1019.1
2018-Feb-02 04:30N 50°24' W 001°41'1019.4
2018-Feb-02 04:01N 50°25' W 001°26'1019.4
2018-Feb-02 03:30N 50°26' W 001°11'1019.3
2018-Feb-02 03:00N 50°28' W 000°56'918.8
2018-Feb-02 02:30N 50°29' W 000°41'918.1
2018-Feb-02 02:00N 50°30' W 000°27'917.3
2018-Feb-02 01:30N 50°32' W 000°13'816.4
2018-Feb-02 01:00N 50°33' W 000°01'815.5
2018-Feb-02 00:30N 50°34' E 000°11'714.8
2018-Feb-02 00:00N 50°35' E 000°23'713.7
2018-Feb-01 23:30N 50°36' E 000°34'612.3
2018-Feb-01 23:00N 50°39' E 000°42'1212.5
2018-Feb-01 22:01N 50°46' E 000°58'612.8
2018-Feb-01 21:30N 50°49' E 001°07'3015.2
2018-Feb-01 19:30N 51°10' E 001°42'714.4
2018-Feb-01 19:01N 51°16' E 001°49'612.3
2018-Feb-01 18:30N 51°21' E 001°55'510.4
2018-Feb-01 18:00N 51°26' E 001°56'611.3
2018-Feb-01 17:30N 51°31' E 001°51'510.7
2018-Feb-01 17:01N 51°36' E 001°48'510.0
2018-Feb-01 16:30N 51°41' E 001°45'5 9.7
2018-Feb-01 16:00N 51°46' E 001°44'4 9.0
2018-Feb-01 15:30N 51°50' E 001°42'4 7.9
2018-Feb-01 15:00N 51°53' E 001°38'12 8.1
2018-Feb-01 13:30N 51°56' E 001°19'1 1.8
2018-Feb-01 13:01N 51°57' E 001°19'0 0.1
2018-Feb-01 12:29N 51°57' E 001°19'0 0.1
2018-Feb-01 11:59N 51°57' E 001°19'0 0.0
2018-Feb-01 10:59N 51°57' E 001°19'0 0.0
2018-Feb-01 10:29N 51°57' E 001°19'0 0.0
2018-Feb-01 09:59N 51°57' E 001°19'0 0.0
2018-Feb-01 09:29N 51°57' E 001°19'0 0.0
2018-Feb-01 08:59N 51°57' E 001°19'0 0.0
2018-Feb-01 08:29N 51°57' E 001°19'0 0.0
2018-Feb-01 07:29N 51°57' E 001°19'0 0.0
2018-Feb-01 06:59N 51°57' E 001°19'0 0.0
2018-Feb-01 06:29N 51°57' E 001°19'0 0.0
2018-Feb-01 05:59N 51°57' E 001°19'0 0.0
2018-Feb-01 05:29N 51°57' E 001°19'0 0.0
2018-Feb-01 04:59N 51°57' E 001°19'0 0.0
2018-Feb-01 04:29N 51°57' E 001°19'0 0.0
2018-Feb-01 03:59N 51°57' E 001°19'0 0.0
2018-Feb-01 02:59N 51°57' E 001°19'0 0.0
2018-Feb-01 02:29N 51°57' E 001°19'0 0.0
2018-Feb-01 01:59N 51°57' E 001°19'0 0.0
2018-Feb-01 01:29N 51°57' E 001°19'0 0.0
2018-Feb-01 00:59N 51°57' E 001°19'0 0.0
2018-Feb-01 00:29N 51°57' E 001°19'0 0.0
2018-Jan-31 23:59N 51°57' E 001°19'0 0.0
2018-Jan-31 22:59N 51°57' E 001°19'0 0.0
2018-Jan-31 22:29N 51°57' E 001°19'0 0.0
2018-Jan-31 20:59N 51°57' E 001°19'0 0.0
2018-Jan-31 20:29N 51°57' E 001°19'0 0.0
2018-Jan-31 19:59N 51°57' E 001°19'0 0.0
2018-Jan-31 19:29N 51°57' E 001°19'0 0.0
2018-Jan-31 18:59N 51°57' E 001°19'0 0.0
2018-Jan-31 18:29N 51°57' E 001°19'0 0.0
2018-Jan-31 18:00N 51°57' E 001°19'0 0.0
2018-Jan-31 17:30N 51°57' E 001°19'0 0.0
2018-Jan-31 17:00N 51°57' E 001°19'0 0.0
2018-Jan-31 16:30N 51°57' E 001°19'0 0.0
2018-Jan-31 15:57N 51°57' E 001°19'0 0.0
2018-Jan-31 15:30N 51°57' E 001°19'0 0.0
2018-Jan-31 15:00N 51°57' E 001°19'0 0.0
2018-Jan-31 14:30N 51°57' E 001°19'0 0.0
2018-Jan-31 13:00N 51°57' E 001°19'0 0.0
2018-Jan-31 12:30N 51°57' E 001°19'0 0.0
2018-Jan-31 12:00N 51°57' E 001°19'0 0.0
2018-Jan-31 11:30N 51°57' E 001°19'0 0.0
2018-Jan-31 11:00N 51°57' E 001°19'0 0.0
2018-Jan-31 10:27N 51°57' E 001°19'0 0.0
2018-Jan-31 10:00N 51°57' E 001°19'0 0.0
2018-Jan-31 09:30N 51°57' E 001°19'0 0.0
2018-Jan-31 09:00N 51°57' E 001°19'0 0.0
2018-Jan-31 08:30N 51°57' E 001°19'0 0.0
2018-Jan-31 08:00N 51°57' E 001°19'0 0.0
2018-Jan-31 07:30N 51°57' E 001°19'0 0.3
2018-Jan-31 07:00N 51°57' E 001°19'1 2.8
2018-Jan-31 06:30N 51°55' E 001°20'611.2
2018-Jan-31 06:00N 51°56' E 001°29'4 7.0
2018-Jan-31 05:30N 51°54' E 001°34'3 5.6
2018-Jan-31 05:00N 51°52' E 001°36'3 6.1
2018-Jan-31 04:30N 51°52' E 001°41'2 4.9
2018-Jan-31 04:00N 51°55' E 001°41'0 0.5
2018-Jan-31 03:30N 51°55' E 001°41'0 0.0
2018-Jan-31 03:00N 51°55' E 001°41'0 0.0
2018-Jan-31 02:30N 51°55' E 001°41'0 0.0
2018-Jan-31 02:00N 51°55' E 001°41'0 0.0
2018-Jan-31 01:30N 51°55' E 001°41'0 0.1
2018-Jan-31 01:00N 51°55' E 001°41'4 4.5
2018-Jan-31 00:00N 51°52' E 001°47'5 9.2
2018-Jan-30 23:30N 51°50' E 001°53'4 7.5
2018-Jan-30 23:00N 51°51' E 001°59'4 8.5
2018-Jan-30 22:30N 51°53' E 002°05'1210.8
2018-Jan-30 21:25N 52°00' E 002°21'817.8
2018-Jan-30 21:00N 52°05' E 002°30'2618.9
2018-Jan-30 19:36N 52°20' E 003°05'219.6
2018-Jan-30 19:29N 52°22' E 003°08'1019.4
2018-Jan-30 18:59N 52°28' E 003°20'1019.6
2018-Jan-30 18:30N 52°36' E 003°29'1019.1
2018-Jan-30 17:59N 52°44' E 003°39'918.6
2018-Jan-30 17:30N 52°50' E 003°49'1718.2
2018-Jan-30 16:36N 53°02' E 004°08'218.2
2018-Jan-30 16:31N 53°03' E 004°11'917.9
2018-Jan-30 16:00N 53°09' E 004°22'817.2
2018-Jan-30 15:31N 53°16' E 004°29'1017.4
2018-Jan-30 14:55N 53°26' E 004°35'717.6
2018-Jan-30 14:30N 53°30' E 004°44'1919.0
2018-Jan-30 13:31N 53°37' E 005°14'9217.4
2018-Jan-30 08:12N 53°53' E 007°48'416.6
2018-Jan-30 07:57N 53°52' E 007°55'714.9
2018-Jan-30 07:30N 53°50' E 008°06'713.6
2018-Jan-30 07:00N 53°45' E 008°13'612.0
2018-Jan-30 06:30N 53°41' E 008°21'611.7
2018-Jan-30 06:00N 53°37' E 008°29'2 3.6
2018-Jan-30 05:30N 53°36' E 008°31'0 0.0
2018-Jan-30 05:00N 53°36' E 008°31'0 0.0
2018-Jan-30 04:30N 53°36' E 008°31'0 0.0
2018-Jan-30 04:00N 53°36' E 008°31'0 0.0
2018-Jan-30 03:30N 53°36' E 008°31'0 0.0
2018-Jan-30 03:00N 53°36' E 008°31'0 0.0
2018-Jan-30 02:30N 53°36' E 008°31'0 0.0
2018-Jan-30 02:00N 53°36' E 008°31'0 0.0
2018-Jan-30 01:30N 53°36' E 008°31'0 0.0
2018-Jan-30 01:00N 53°36' E 008°31'0 0.0
2018-Jan-30 00:30N 53°36' E 008°31'0 0.0
2018-Jan-30 00:00N 53°36' E 008°31'0 0.0
2018-Jan-29 23:30N 53°36' E 008°31'0 0.0
2018-Jan-29 23:00N 53°36' E 008°31'0 0.0
2018-Jan-29 22:30N 53°36' E 008°31'0 0.0
2018-Jan-29 22:00N 53°36' E 008°31'0 0.0
2018-Jan-29 21:30N 53°36' E 008°31'0 0.0
2018-Jan-29 21:00N 53°36' E 008°31'0 0.0
2018-Jan-29 20:30N 53°36' E 008°31'0 0.0
2018-Jan-29 20:00N 53°36' E 008°31'0 0.0
2018-Jan-29 19:30N 53°36' E 008°31'0 0.0
2018-Jan-29 19:00N 53°36' E 008°31'0 0.0
2018-Jan-29 18:30N 53°36' E 008°31'0 0.0
2018-Jan-29 18:00N 53°36' E 008°31'0 0.0
2018-Jan-29 17:30N 53°36' E 008°31'0 0.0
2018-Jan-29 17:00N 53°36' E 008°31'0 0.0
2018-Jan-29 16:30N 53°36' E 008°31'0 0.0
2018-Jan-29 16:00N 53°36' E 008°31'0 0.0
2018-Jan-29 15:30N 53°36' E 008°31'0 0.0
2018-Jan-29 15:00N 53°36' E 008°31'0 0.0
2018-Jan-29 14:30N 53°36' E 008°31'0 0.0
2018-Jan-29 14:00N 53°36' E 008°31'  

Dump ship's entire track history